Time;durP1;ratioP1;P1;durP2;ratioP2;P2;SDS_P1;SDS_P2;PMS_P1;PMS_P2;Temp;Humidity;BMP_temperature;BMP_pressure;BME280_temperature;BME280_humidity;BME280_pressure;Samples;Min_cycle;Max_cycle;Signal;HPM_P1;HPM_P2
2024/01/27 00:00:08;;;;;;;12.25;4.20;;;17.20;91.70;;;;;;5031804;28;20072;-65
2024/01/27 00:02:34;;;;;;;11.90;4.13;;;17.20;91.70;;;;;;5032191;28;20398;-65
2024/01/27 00:04:59;;;;;;;12.15;3.85;;;17.20;91.70;;;;;;5033037;28;20052;-65
2024/01/27 00:07:27;;;;;;;11.30;3.92;;;17.20;91.80;;;;;;5031851;28;20051;-66
2024/01/27 00:09:52;;;;;;;10.93;3.80;;;17.20;90.70;;;;;;5031819;28;20057;-64
2024/01/27 00:12:18;;;;;;;11.25;4.03;;;17.30;90.70;;;;;;5032969;28;20048;-64
2024/01/27 00:14:44;;;;;;;11.98;3.75;;;17.10;91.70;;;;;;5034499;28;20045;-64
2024/01/27 00:17:10;;;;;;;10.38;4.20;;;;;;;;;;5032639;28;20087;-64
2024/01/27 00:19:36;;;;;;;9.93;3.40;;;17.00;91.70;;;;;;5031371;28;20100;-66
2024/01/27 00:22:02;;;;;;;9.68;4.03;;;17.00;92.00;;;;;;5047998;28;20046;-65
2024/01/27 00:24:28;;;;;;;10.52;3.75;;;;;;;;;;5033437;28;20045;-64
2024/01/27 00:26:54;;;;;;;9.15;3.55;;;16.80;91.50;;;;;;5033158;28;20491;-64
2024/01/27 00:29:20;;;;;;;11.00;3.65;;;16.90;91.50;;;;;;5032151;28;20120;-64
2024/01/27 00:31:46;;;;;;;9.43;3.72;;;;;;;;;;5048081;28;20042;-65
2024/01/27 00:34:12;;;;;;;12.07;4.13;;;16.80;91.40;;;;;;5047968;28;20041;-65
2024/01/27 00:36:38;;;;;;;9.80;4.00;;;;;;;;;;5047653;28;20045;-66
2024/01/27 00:39:04;;;;;;;10.63;3.70;;;16.80;90.40;;;;;;5030791;28;20064;-65
2024/01/27 00:41:30;;;;;;;8.48;3.38;;;16.70;91.20;;;;;;5032381;28;20053;-64
2024/01/27 00:43:55;;;;;;;11.30;4.15;;;16.80;91.20;;;;;;5032961;28;20060;-64
2024/01/27 00:46:21;;;;;;;10.80;3.35;;;16.80;91.20;;;;;;5033867;28;20041;-65
2024/01/27 00:48:46;;;;;;;11.63;3.88;;;16.60;91.20;;;;;;5031979;28;20476;-65
2024/01/27 00:51:13;;;;;;;13.25;3.83;;;16.60;91.20;;;;;;5032261;28;20563;-64
2024/01/27 00:53:39;;;;;;;11.10;4.22;;;;;;;;;;5031196;28;20081;-64
2024/01/27 00:56:05;;;;;;;10.55;4.03;;;;;;;;;;5030272;28;20415;-66
2024/01/27 00:58:31;;;;;;;12.65;3.47;;;16.50;91.10;;;;;;5065285;28;20046;-65
2024/01/27 01:00:58;;;;;;;11.73;3.40;;;16.60;91.20;;;;;;5031926;28;20085;-64
2024/01/27 01:03:24;;;;;;;12.30;3.90;;;;;;;;;;5032495;28;20049;-65
2024/01/27 01:05:50;;;;;;;10.40;3.40;;;16.30;90.50;;;;;;5030345;28;20049;-65
2024/01/27 01:08:15;;;;;;;10.75;3.72;;;16.30;90.50;;;;;;5031837;28;20128;-64
2024/01/27 01:10:41;;;;;;;12.50;3.63;;;16.40;91.30;;;;;;5047490;28;20057;-64
2024/01/27 01:13:07;;;;;;;11.25;3.40;;;16.20;91.30;;;;;;5047127;28;20061;-65
2024/01/27 01:15:32;;;;;;;10.93;3.90;;;16.40;90.10;;;;;;5063536;28;20054;-65
2024/01/27 01:17:58;;;;;;;12.75;3.53;;;16.30;91.40;;;;;;5033190;28;20049;-65
2024/01/27 01:20:26;;;;;;;10.80;3.92;;;16.30;90.10;;;;;;5031973;28;20092;-65
2024/01/27 01:22:52;;;;;;;8.95;3.20;;;16.20;91.40;;;;;;5030358;28;20041;-65
2024/01/27 01:25:17;;;;;;;10.65;3.88;;;16.00;91.30;;;;;;5030008;28;20081;-65
2024/01/27 01:27:43;;;;;;;14.00;3.90;;;;;;;;;;5030139;28;20088;-66
2024/01/27 01:30:10;;;;;;;11.68;3.63;;;;;;;;;;5033494;28;20444;-64
2024/01/27 01:32:36;;;;;;;13.82;4.22;;;;;;;;;;5031816;28;20132;-65
2024/01/27 01:35:02;;;;;;;11.05;3.95;;;;;;;;;;5046674;28;20046;-65
2024/01/27 01:37:28;;;;;;;9.15;3.20;;;15.90;91.30;;;;;;5063433;28;20048;-65
2024/01/27 01:39:53;;;;;;;13.90;3.97;;;16.00;91.40;;;;;;5064551;28;20053;-65
2024/01/27 01:42:23;;;;;;;9.43;3.70;;;;;;;;;;5030264;28;20052;-64
2024/01/27 01:44:48;;;;;;;10.48;3.10;;;15.90;91.40;;;;;;5031184;28;20552;-65
2024/01/27 01:47:14;;;;;;;12.82;3.75;;;15.90;91.50;;;;;;5029722;28;20046;-64
2024/01/27 01:49:40;;;;;;;10.48;3.30;;;;;;;;;;5031213;28;20049;-64
2024/01/27 01:52:06;;;;;;;8.98;3.67;;;15.80;91.50;;;;;;5030524;28;20136;-65
2024/01/27 01:54:32;;;;;;;9.70;3.13;;;15.80;91.50;;;;;;5029893;28;20479;-65
2024/01/27 01:56:58;;;;;;;8.85;3.55;;;15.70;91.50;;;;;;5031672;28;20045;-65
2024/01/27 01:59:24;;;;;;;11.45;3.28;;;15.70;91.60;;;;;;5013070;28;20053;-65
2024/01/27 02:01:50;;;;;;;9.95;3.28;;;;;;;;;;5031624;28;20060;-65
2024/01/27 02:04:16;;;;;;;9.82;3.10;;;;;;;;;;5047152;28;20371;-65
2024/01/27 02:06:42;;;;;;;9.18;3.08;;;;;;;;;;5029780;28;20053;-65
2024/01/27 02:09:09;;;;;;;11.60;3.53;;;15.70;91.70;;;;;;5030545;28;20037;-65
2024/01/27 02:11:35;;;;;;;13.23;3.63;;;;;;;;;;5032537;28;20044;-65
2024/01/27 02:14:01;;;;;;;11.05;3.13;;;15.60;91.60;;;;;;5046291;28;20045;-65
2024/01/27 02:16:27;;;;;;;10.43;3.05;;;15.40;91.50;;;;;;5029746;28;20454;-66
2024/01/27 02:18:53;;;;;;;12.02;3.63;;;;;;;;;;5031413;28;20089;-66
2024/01/27 02:21:19;;;;;;;10.07;3.05;;;;;;;;;;5029388;28;20045;-66
2024/01/27 02:23:45;;;;;;;10.52;3.65;;;15.50;91.50;;;;;;5029346;28;20041;-65
2024/01/27 02:26:11;;;;;;;14.93;3.92;;;;;;;;;;5030742;28;20045;-65
2024/01/27 02:28:37;;;;;;;11.35;3.47;;;;;;;;;;5030360;28;20125;-66
2024/01/27 02:31:03;;;;;;;11.00;3.58;;;;;;;;;;5030522;28;20041;-66
2024/01/27 02:33:29;;;;;;;10.25;3.33;;;15.40;90.80;;;;;;5033186;28;20053;-65
2024/01/27 02:35:54;;;;;;;10.15;3.65;;;15.40;90.90;;;;;;5029818;28;20045;-65
2024/01/27 02:38:20;;;;;;;10.55;3.15;;;15.40;91.50;;;;;;5030122;28;20079;-66
2024/01/27 02:40:46;;;;;;;14.05;3.75;;;;;;;;;;5031023;28;20056;-65
2024/01/27 02:43:12;;;;;;;11.15;3.47;;;;;;;;;;5032044;28;20088;-66
2024/01/27 02:45:38;;;;;;;13.10;3.47;;;;;;;;;;5029894;28;20108;-65
2024/01/27 02:48:05;;;;;;;11.10;2.92;;;;;;;;;;5029845;28;20056;-65
2024/01/27 02:50:30;;;;;;;12.05;3.38;;;15.40;91.50;;;;;;5030708;28;20040;-65
2024/01/27 02:52:56;;;;;;;11.80;3.65;;;15.40;91.50;;;;;;5029532;28;20049;-65
2024/01/27 02:55:22;;;;;;;11.13;3.58;;;;;;;;;;5061309;28;20038;-65
2024/01/27 02:57:48;;;;;;;10.38;3.20;;;;;;;;;;5031119;28;20085;-65
2024/01/27 03:00:14;;;;;;;9.65;3.10;;;15.40;91.60;;;;;;5029598;28;20060;-66
2024/01/27 03:02:40;;;;;;;9.45;3.05;;;;;;;;;;5031266;28;20046;-65
2024/01/27 03:05:06;;;;;;;9.93;3.28;;;15.20;91.50;;;;;;5033183;28;20068;-65
2024/01/27 03:07:31;;;;;;;11.82;3.35;;;15.30;91.60;;;;;;5034026;28;20130;-65
2024/01/27 03:09:58;;;;;;;10.90;3.17;;;;;;;;;;5033095;28;20577;-64
2024/01/27 03:12:23;;;;;;;11.05;3.03;;;15.10;91.60;;;;;;5032431;28;20083;-65
2024/01/27 03:14:50;;;;;;;10.43;3.28;;;;;;;;;;5048694;28;20095;-65
2024/01/27 03:17:16;;;;;;;9.32;2.78;;;15.00;91.60;;;;;;5034617;28;20053;-65
2024/01/27 03:19:42;;;;;;;10.18;3.53;;;15.10;91.70;;;;;;5032467;28;20411;-65
2024/01/27 03:22:08;;;;;;;11.95;3.70;;;;;;;;;;5034151;28;20430;-65
2024/01/27 03:24:34;;;;;;;12.50;3.35;;;;;;;;;;5033404;28;20363;-65
2024/01/27 03:26:59;;;;;;;8.10;3.10;;;15.20;91.70;;;;;;5032858;28;20045;-65
2024/01/27 03:29:25;;;;;;;11.05;3.55;;;15.10;91.70;;;;;;5032713;28;20407;-65
2024/01/27 03:31:51;;;;;;;8.52;3.13;;;;;;;;;;5065740;28;20049;-66
2024/01/27 03:34:19;;;;;;;10.60;3.10;;;14.90;91.70;;;;;;5065082;28;20049;-65
2024/01/27 03:36:48;;;;;;;10.18;3.20;;;14.90;90.50;;;;;;5034201;28;20040;-67
2024/01/27 03:39:14;;;;;;;10.57;3.08;;;;;;;;;;5033843;28;20180;-65
2024/01/27 03:41:40;;;;;;;10.45;2.90;;;14.90;91.70;;;;;;5033952;28;20053;-65
2024/01/27 03:44:05;;;;;;;10.40;3.30;;;14.90;91.80;;;;;;5032996;28;20468;-65
2024/01/27 03:46:31;;;;;;;11.65;3.38;;;;;;;;;;5033678;28;20049;-65
2024/01/27 03:48:57;;;;;;;10.90;3.25;;;;;;;;;;5032422;28;20053;-66
2024/01/27 03:51:25;;;;;;;10.95;3.40;;;;;;;;;;5032046;28;20574;-65
2024/01/27 03:53:51;;;;;;;11.27;3.47;;;14.80;91.80;;;;;;5031804;28;20052;-65
2024/01/27 03:56:17;;;;;;;11.80;3.78;;;;;;;;;;5034718;28;20049;-64
2024/01/27 03:58:42;;;;;;;8.07;2.80;;;14.90;90.90;;;;;;5033622;28;20120;-64
2024/01/27 04:01:08;;;;;;;11.07;3.33;;;15.00;92.00;;;;;;5032459;28;20435;-65
2024/01/27 04:03:34;;;;;;;9.70;2.97;;;14.90;91.00;;;;;;5033425;28;20503;-65
2024/01/27 04:06:02;;;;;;;7.55;3.08;;;14.70;92.00;;;;;;5031965;28;20064;-65
2024/01/27 04:08:28;;;;;;;8.43;2.70;;;;;;;;;;5048353;28;20061;-65
2024/01/27 04:10:54;;;;;;;8.18;2.88;;;;;;;;;;5065252;28;20053;-65
2024/01/27 04:13:19;;;;;;;11.57;3.35;;;14.70;91.80;;;;;;5047406;28;20056;-66
2024/01/27 04:15:45;;;;;;;8.07;2.85;;;14.80;91.90;;;;;;5031309;28;20042;-65
2024/01/27 04:18:11;;;;;;;9.90;3.13;;;14.80;91.80;;;;;;5033208;28;20056;-65
2024/01/27 04:20:37;;;;;;;10.23;3.30;;;14.90;91.80;;;;;;5065107;28;20049;-65
2024/01/27 04:23:03;;;;;;;8.23;3.00;;;;;;;;;;5047519;28;20543;-65
2024/01/27 04:25:29;;;;;;;9.88;2.95;;;;;;;;;;5031338;28;20095;-65
2024/01/27 04:27:55;;;;;;;10.00;3.08;;;14.80;91.80;;;;;;5031318;28;20056;-65
2024/01/27 04:30:21;;;;;;;10.75;3.00;;;14.70;91.70;;;;;;5031863;28;20041;-65
2024/01/27 04:32:49;;;;;;;8.60;2.92;;;14.70;91.80;;;;;;5032286;28;20060;-65
2024/01/27 04:35:14;;;;;;;11.30;3.13;;;14.80;91.30;;;;;;5034615;28;20045;-65
2024/01/27 04:37:40;;;;;;;10.45;3.00;;;14.80;90.50;;;;;;5030971;28;20029;-65
2024/01/27 04:40:06;;;;;;;10.93;3.55;;;14.80;91.80;;;;;;5030990;28;20050;-65
2024/01/27 04:42:37;;;;;;;9.45;3.08;;;14.70;91.80;;;;;;5031224;28;20042;-65
2024/01/27 04:45:04;;;;;;;10.13;2.83;;;14.70;90.20;;;;;;5048466;28;20064;-64
2024/01/27 04:47:30;;;;;;;9.32;3.35;;;;;;;;;;5016450;28;20443;-65
2024/01/27 04:49:57;;;;;;;8.55;2.80;;;;;;;;;;5013701;28;20049;-67
2024/01/27 04:52:23;;;;;;;10.85;3.35;;;;;;;;;;5026173;28;20053;-65
2024/01/27 04:54:49;;;;;;;9.52;3.13;;;14.70;91.80;;;;;;5064953;28;20053;-65
2024/01/27 04:57:15;;;;;;;13.77;3.00;;;14.70;90.40;;;;;;5031953;28;20046;-66
2024/01/27 04:59:41;;;;;;;8.73;2.63;;;14.70;91.80;;;;;;5031393;28;20089;-66
2024/01/27 05:02:07;;;;;;;8.77;2.80;;;14.50;91.70;;;;;;5030485;28;20480;-64
2024/01/27 05:04:32;;;;;;;12.55;3.40;;;14.70;91.80;;;;;;4998530;28;20045;-65
2024/01/27 05:06:58;;;;;;;9.88;3.13;;;14.80;91.80;;;;;;5032046;28;20125;-64
2024/01/27 05:09:24;;;;;;;10.00;3.03;;;14.60;91.80;;;;;;5030607;28;20175;-65
2024/01/27 05:11:53;;;;;;;10.07;2.92;;;;;;;;;;5029490;28;20054;-64
2024/01/27 05:14:19;;;;;;;9.05;2.53;;;14.60;91.70;;;;;;5061406;28;20436;-65
2024/01/27 05:16:45;;;;;;;8.93;3.20;;;;;;;;;;5031846;28;20077;-65
2024/01/27 05:19:11;;;;;;;8.30;2.53;;;;;;;;;;5030957;28;20072;-66
2024/01/27 05:21:38;;;;;;;9.60;3.10;;;14.60;91.70;;;;;;5062923;28;20394;-64
2024/01/27 05:24:04;;;;;;;10.65;3.10;;;14.70;90.20;;;;;;5031775;28;20044;-64
2024/01/27 05:26:30;;;;;;;9.63;2.78;;;;;;;;;;5028995;28;20522;-68
2024/01/27 05:28:56;;;;;;;10.43;2.88;;;;;;;;;;5031936;28;20118;-65
2024/01/27 05:31:22;;;;;;;8.45;3.03;;;;;;;;;;5030552;28;20049;-63
2024/01/27 05:33:48;;;;;;;13.10;3.28;;;14.70;91.70;;;;;;5029422;28;20071;-65
2024/01/27 05:36:13;;;;;;;9.10;2.83;;;14.60;91.70;;;;;;5029727;28;20041;-64
2024/01/27 05:38:39;;;;;;;8.75;3.30;;;;;;;;;;5034298;28;20084;-65
2024/01/27 05:41:05;;;;;;;11.18;3.13;;;14.60;91.70;;;;;;5031765;28;20128;-64
2024/01/27 05:43:31;;;;;;;9.18;3.30;;;;;;;;;;5031397;28;20128;-64
2024/01/27 05:45:57;;;;;;;9.60;2.80;;;;;;;;;;5031394;28;20053;-65
2024/01/27 05:48:23;;;;;;;10.55;3.35;;;14.40;91.70;;;;;;5029608;28;20121;-65
2024/01/27 05:50:58;;;;;;;9.40;3.15;;;14.50;91.70;;;;;;5031284;28;20132;-64
2024/01/27 05:53:24;;;;;;;11.20;2.97;;;14.50;91.80;;;;;;5031681;28;20053;-65
2024/01/27 05:55:50;;;;;;;11.15;2.92;;;14.50;91.70;;;;;;5027753;28;20121;-65
2024/01/27 05:58:16;;;;;;;10.00;2.83;;;;;;;;;;5028444;28;20152;-65
2024/01/27 06:00:45;;;;;;;11.18;3.05;;;14.50;90.80;;;;;;5030980;28;20487;-64
2024/01/27 06:03:10;;;;;;;10.25;3.10;;;14.40;91.70;;;;;;5047204;28;20462;-65
2024/01/27 06:05:37;;;;;;;10.50;3.17;;;14.50;91.80;;;;;;5031547;28;20132;-61
2024/01/27 06:08:03;;;;;;;15.23;4.00;;;;;;;;;;5062992;28;20061;-63
2024/01/27 06:10:30;;;;;;;13.65;3.67;;;14.40;91.40;;;;;;5030371;28;20041;-62
2024/01/27 06:12:56;;;;;;;15.43;3.97;;;14.40;91.30;;;;;;5029863;28;20415;-62
2024/01/27 06:15:21;;;;;;;12.93;3.50;;;14.20;91.30;;;;;;5029156;28;20053;-61
2024/01/27 06:17:48;;;;;;;16.35;4.07;;;;;;;;;;5029314;28;20388;-62
2024/01/27 06:20:16;;;;;;;16.15;3.90;;;;;;;;;;5029174;28;20049;-63
2024/01/27 06:22:41;;;;;;;15.50;4.10;;;14.10;91.20;;;;;;5027911;28;20510;-62
2024/01/27 06:25:08;;;;;;;14.75;4.22;;;14.10;90.00;;;;;;5030103;28;20053;-62
2024/01/27 06:27:34;;;;;;;14.00;4.05;;;;;;;;;;5030394;28;20033;-65
2024/01/27 06:30:01;;;;;;;16.92;3.92;;;;;;;;;;5028560;28;20056;-63
2024/01/27 06:32:26;;;;;;;16.98;4.22;;;13.80;91.10;;;;;;5028645;28;20081;-61
2024/01/27 06:34:52;;;;;;;14.30;3.85;;;;;;;;;;5030789;28;20085;-62
2024/01/27 06:37:18;;;;;;;12.57;3.85;;;;;;;;;;5013637;28;20128;-61
2024/01/27 06:39:44;;;;;;;17.08;3.67;;;;;;;;;;5032817;28;20703;-63
2024/01/27 06:42:10;;;;;;;15.15;3.70;;;13.80;90.80;;;;;;5065564;28;20052;-61
2024/01/27 06:44:36;;;;;;;15.02;4.10;;;;;;;;;;5034239;28;20033;-65
2024/01/27 06:47:02;;;;;;;16.63;4.28;;;;;;;;;;5034210;28;20099;-68
2024/01/27 06:49:28;;;;;;;15.60;3.38;;;;;;;;;;5030311;28;20049;-65
2024/01/27 06:51:54;;;;;;;15.15;4.45;;;;;;;;;;5034325;28;20048;-66
2024/01/27 06:54:20;;;;;;;14.63;3.80;;;;;;;;;;5018796;28;20058;-65
2024/01/27 06:56:46;;;;;;;13.65;4.05;;;13.80;91.10;;;;;;5013657;28;20045;-65
2024/01/27 06:59:12;;;;;;;16.23;3.97;;;13.80;91.10;;;;;;5013421;28;20072;-65
2024/01/27 07:01:38;;;;;;;13.93;3.80;;;;;;;;;;5014978;28;20136;-64
2024/01/27 07:04:05;;;;;;;13.63;3.92;;;13.90;91.10;;;;;;5014780;28;20046;-65
2024/01/27 07:06:31;;;;;;;13.75;3.80;;;;;;;;;;5029653;28;20506;-64
2024/01/27 07:08:57;;;;;;;10.48;3.35;;;;;;;;;;5034567;28;20114;-65
2024/01/27 07:11:22;;;;;;;15.73;3.80;;;13.90;91.20;;;;;;5033283;28;20467;-65
2024/01/27 07:13:48;;;;;;;11.15;3.63;;;13.90;91.20;;;;;;5033160;28;20092;-64
2024/01/27 07:16:14;;;;;;;12.68;3.65;;;;;;;;;;5033195;28;20046;-64
2024/01/27 07:18:39;;;;;;;11.77;3.55;;;13.90;91.20;;;;;;5033264;28;20163;-64
2024/01/27 07:21:06;;;;;;;12.32;3.55;;;;;;;;;;5032921;28;20506;-65
2024/01/27 07:23:32;;;;;;;12.45;3.50;;;;;;;;;;5032997;28;20072;-65
2024/01/27 07:26:03;;;;;;;10.90;3.28;;;14.00;91.20;;;;;;5032974;28;20441;-65
2024/01/27 07:28:29;;;;;;;11.23;3.30;;;;;;;;;;5034421;28;20045;-65
2024/01/27 07:30:55;;;;;;;10.65;2.90;;;14.00;91.20;;;;;;5033080;28;20049;-65
2024/01/27 07:33:20;;;;;;;10.02;2.92;;;13.90;91.20;;;;;;5016304;28;20507;-64
2024/01/27 07:35:46;;;;;;;11.77;3.38;;;14.00;91.20;;;;;;5034305;28;20364;-65
2024/01/27 07:38:12;;;;;;;9.18;3.05;;;14.00;91.20;;;;;;5032510;28;20057;-64
2024/01/27 07:40:38;;;;;;;10.43;3.17;;;14.00;90.10;;;;;;5033863;28;20049;-64
2024/01/27 07:43:03;;;;;;;11.07;3.45;;;14.00;90.70;;;;;;5034191;28;20376;-64
2024/01/27 07:45:29;;;;;;;12.60;3.38;;;;;;;;;;5032474;28;20049;-64
2024/01/27 07:47:56;;;;;;;10.27;3.15;;;;;;;;;;5032439;28;20540;-64
2024/01/27 07:50:23;;;;;;;10.25;3.28;;;13.90;91.10;;;;;;5033209;28;20558;-64
2024/01/27 07:52:49;;;;;;;9.60;2.80;;;;;;;;;;5033890;28;20057;-65
2024/01/27 07:55:15;;;;;;;9.40;3.05;;;14.10;89.10;;;;;;5033955;28;20079;-65
2024/01/27 07:57:41;;;;;;;9.75;3.17;;;;;;;;;;5033411;28;20483;-65
2024/01/27 08:00:07;;;;;;;10.77;3.15;;;14.00;91.20;;;;;;5044402;28;20041;-65
2024/01/27 08:02:34;;;;;;;10.27;3.35;;;;;;;;;;5049889;28;20120;-65
2024/01/27 08:05:00;;;;;;;9.02;3.10;;;;;;;;;;5033729;28;20045;-65
2024/01/27 08:07:25;;;;;;;9.65;2.88;;;14.00;91.20;;;;;;5037570;28;20050;-64
2024/01/27 08:09:52;;;;;;;8.48;2.88;;;;;;;;;;5053517;28;20400;-65
2024/01/27 08:12:17;;;;;;;10.90;3.53;;;13.90;91.20;;;;;;5047530;28;20084;-65
2024/01/27 08:14:43;;;;;;;9.85;3.10;;;;;;;;;;5033543;28;20037;-64
2024/01/27 08:17:09;;;;;;;9.68;3.35;;;14.00;91.20;;;;;;5015845;28;20128;-66
2024/01/27 08:19:35;;;;;;;11.15;3.40;;;;;;;;;;5032404;28;20149;-65
2024/01/27 08:22:01;;;;;;;11.30;3.08;;;;;;;;;;5033540;28;20091;-65
2024/01/27 08:24:27;;;;;;;9.55;2.88;;;13.90;91.30;;;;;;5033540;28;20049;-65
2024/01/27 08:26:53;;;;;;;10.73;3.05;;;14.00;91.30;;;;;;5033330;28;20068;-65
2024/01/27 08:29:19;;;;;;;10.32;3.10;;;14.00;91.30;;;;;;5033051;28;20081;-65
2024/01/27 08:31:44;;;;;;;10.70;3.20;;;14.00;91.30;;;;;;5031569;28;20045;-65
2024/01/27 08:34:12;;;;;;;9.45;3.28;;;;;;;;;;5031736;28;20045;-65
2024/01/27 08:36:38;;;;;;;9.80;2.95;;;13.80;91.30;;;;;;5033155;28;20091;-65
2024/01/27 08:39:04;;;;;;;9.73;3.22;;;14.00;91.30;;;;;;5032704;28;20515;-66
2024/01/27 08:41:30;;;;;;;9.50;3.28;;;14.00;91.30;;;;;;5014977;28;20061;-65
2024/01/27 08:43:56;;;;;;;12.40;3.63;;;;;;;;;;5031769;28;20045;-65
2024/01/27 08:46:22;;;;;;;9.63;3.05;;;;;;;;;;5032610;28;20058;-65
2024/01/27 08:48:48;;;;;;;7.88;2.92;;;14.20;91.40;;;;;;5031064;28;20057;-64
2024/01/27 08:51:16;;;;;;;9.80;2.80;;;;;;;;;;5032899;28;20065;-65
2024/01/27 08:53:48;;;;;;;10.50;3.00;;;;;;;;;;5031269;28;20111;-65
2024/01/27 08:56:15;;;;;;;9.57;3.20;;;14.20;91.30;;;;;;5032845;28;20044;-65
2024/01/27 08:58:42;;;;;;;12.07;3.05;;;14.30;90.90;;;;;;5031256;28;20060;-65
2024/01/27 09:01:09;;;;;;;8.40;2.50;;;14.40;91.30;;;;;;5031908;28;20046;-65
2024/01/27 09:03:35;;;;;;;10.57;3.05;;;14.30;91.20;;;;;;5032380;28;20046;-63
2024/01/27 09:06:01;;;;;;;9.05;3.13;;;14.30;91.20;;;;;;5013048;28;20052;-64
2024/01/27 09:08:27;;;;;;;8.05;3.17;;;;;;;;;;5012591;28;20054;-64
2024/01/27 09:10:53;;;;;;;10.63;3.42;;;14.50;91.20;;;;;;5012454;28;20504;-64
2024/01/27 09:13:18;;;;;;;10.73;3.58;;;14.50;91.20;;;;;;5011315;28;20046;-63
2024/01/27 09:15:44;;;;;;;9.45;3.63;;;14.50;91.20;;;;;;5012319;28;20042;-64
2024/01/27 09:18:10;;;;;;;12.55;3.55;;;14.40;91.10;;;;;;5011081;28;20084;-65
2024/01/27 09:20:35;;;;;;;9.65;2.90;;;14.50;91.20;;;;;;5012571;28;20045;-65
2024/01/27 09:23:01;;;;;;;11.73;3.40;;;;;;;;;;5031148;28;20107;-65
2024/01/27 09:25:28;;;;;;;12.95;3.53;;;;;;;;;;5032242;28;20045;-64
2024/01/27 09:27:54;;;;;;;11.63;3.60;;;;;;;;;;5032312;28;20120;-65
2024/01/27 09:30:20;;;;;;;9.70;3.38;;;14.50;91.20;;;;;;5032148;28;20111;-65
2024/01/27 09:32:46;;;;;;;10.00;3.17;;;14.60;91.20;;;;;;5032209;28;20038;-64
2024/01/27 09:35:12;;;;;;;9.93;3.15;;;;;;;;;;5014520;28;20509;-65
2024/01/27 09:37:38;;;;;;;9.32;3.70;;;;;;;;;;5032042;28;20041;-65
2024/01/27 09:40:05;;;;;;;10.88;3.47;;;14.60;89.70;;;;;;5030169;28;20099;-64
2024/01/27 09:42:30;;;;;;;11.10;3.38;;;14.50;91.20;;;;;;5031687;28;20041;-64
2024/01/27 09:44:56;;;;;;;8.88;3.30;;;14.50;91.20;;;;;;5031624;28;20042;-65
2024/01/27 09:47:22;;;;;;;8.95;3.22;;;;;;;;;;5030818;28;20096;-64
2024/01/27 09:49:49;;;;;;;9.95;3.25;;;;;;;;;;5031642;28;20041;-65
2024/01/27 09:52:15;;;;;;;11.38;3.63;;;;;;;;;;5031786;28;20137;-65
2024/01/27 09:54:40;;;;;;;10.27;3.42;;;14.60;90.90;;;;;;5031888;28;20099;-64
2024/01/27 09:57:06;;;;;;;10.65;3.47;;;14.60;91.30;;;;;;5030167;28;20132;-64
2024/01/27 09:59:33;;;;;;;9.30;3.40;;;14.60;91.30;;;;;;5030563;28;20038;-65
2024/01/27 10:01:58;;;;;;;10.48;3.67;;;14.60;91.20;;;;;;5013934;28;20045;-65
2024/01/27 10:04:25;;;;;;;8.70;3.33;;;;;;;;;;5014142;28;20048;-66
2024/01/27 10:06:51;;;;;;;11.57;3.40;;;14.60;91.30;;;;;;5014218;28;20045;-64
2024/01/27 10:09:17;;;;;;;8.90;3.40;;;14.60;91.30;;;;;;5031890;28;20436;-64
2024/01/27 10:11:45;;;;;;;9.40;3.65;;;14.70;90.20;;;;;;5047340;28;20107;-64
2024/01/27 10:14:11;;;;;;;10.52;3.60;;;14.60;91.30;;;;;;5035560;28;20050;-65
2024/01/27 10:16:42;;;;;;;10.77;3.67;;;14.50;91.30;;;;;;5017756;28;20514;-65
2024/01/27 10:19:09;;;;;;;10.80;3.67;;;14.60;91.30;;;;;;5035348;28;20179;-65
2024/01/27 10:21:35;;;;;;;10.48;3.60;;;;;;;;;;5017874;28;20046;-64
2024/01/27 10:24:01;;;;;;;8.35;2.95;;;14.60;91.10;;;;;;5034323;28;20053;-64
2024/01/27 10:26:31;;;;;;;10.32;3.72;;;14.60;91.40;;;;;;5017858;28;20144;-65
2024/01/27 10:28:57;;;;;;;9.57;3.33;;;;;;;;;;5035389;28;20049;-66
2024/01/27 10:31:29;;;;;;;9.05;3.38;;;14.60;88.90;;;;;;5035448;28;20441;-65
2024/01/27 10:33:59;;;;;;;10.13;3.35;;;;;;;;;;5035257;28;20096;-65
2024/01/27 10:36:28;;;;;;;9.00;3.35;;;;;;;;;;5018094;28;20111;-65
2024/01/27 10:38:54;;;;;;;10.57;3.53;;;14.70;90.60;;;;;;5033653;28;20522;-64
2024/01/27 10:41:27;;;;;;;9.88;3.42;;;14.80;90.80;;;;;;5033709;28;20053;-65
2024/01/27 10:43:53;;;;;;;9.68;4.07;;;14.90;91.40;;;;;;5017875;28;20046;-65
2024/01/27 10:46:20;;;;;;;12.70;3.67;;;14.70;90.10;;;;;;5016383;28;20048;-64
2024/01/27 10:48:51;;;;;;;11.20;3.80;;;14.90;90.80;;;;;;5033453;28;20049;-65
2024/01/27 10:51:17;;;;;;;10.52;3.83;;;15.00;91.50;;;;;;5033585;28;20053;-64
2024/01/27 10:53:43;;;;;;;11.25;3.60;;;15.00;91.50;;;;;;5033655;28;20045;-65
2024/01/27 10:56:09;;;;;;;11.13;3.70;;;14.90;91.50;;;;;;5017383;28;20471;-65
2024/01/27 10:58:40;;;;;;;12.55;3.70;;;15.10;91.60;;;;;;5034759;28;20114;-65
2024/01/27 11:01:11;;;;;;;13.57;3.95;;;15.00;91.60;;;;;;5034696;28;20048;-64
2024/01/27 11:03:41;;;;;;;10.93;3.83;;;15.20;89.90;;;;;;5026957;28;20519;-65
2024/01/27 11:06:07;;;;;;;9.93;3.90;;;;;;;;;;4997381;28;20095;-65
2024/01/27 11:08:37;;;;;;;10.25;3.53;;;15.30;91.70;;;;;;5014723;28;20487;-65
2024/01/27 11:11:03;;;;;;;11.90;3.50;;;;;;;;;;5046492;28;20054;-65
2024/01/27 11:13:32;;;;;;;9.70;3.83;;;15.20;91.60;;;;;;5014983;28;20042;-65
2024/01/27 11:15:58;;;;;;;9.73;3.70;;;;;;;;;;5027342;28;20136;-66
2024/01/27 11:18:25;;;;;;;9.40;3.33;;;15.30;91.70;;;;;;5066437;28;20034;-65
2024/01/27 11:20:54;;;;;;;10.98;3.80;;;15.30;91.70;;;;;;5032733;28;20045;-65
2024/01/27 11:23:20;;;;;;;10.07;3.53;;;15.40;91.20;;;;;;5032671;28;20159;-65
2024/01/27 11:25:45;;;;;;;8.95;3.22;;;15.30;91.40;;;;;;5032964;28;20368;-65
2024/01/27 11:28:17;;;;;;;10.98;3.42;;;15.50;91.70;;;;;;5016381;28;20107;-65
2024/01/27 11:30:49;;;;;;;10.27;3.72;;;15.50;89.60;;;;;;5033107;28;20053;-65
2024/01/27 11:33:15;;;;;;;10.45;3.55;;;;;;;;;;5034070;28;20052;-65
2024/01/27 11:35:41;;;;;;;10.05;3.55;;;15.50;91.70;;;;;;5033120;28;20037;-65
2024/01/27 11:38:06;;;;;;;10.95;3.65;;;15.70;91.70;;;;;;5032715;28;20061;-65
2024/01/27 11:40:33;;;;;;;10.65;3.65;;;15.70;91.70;;;;;;5032833;28;20048;-65
2024/01/27 11:43:00;;;;;;;10.60;3.60;;;15.70;90.50;;;;;;5032630;28;20057;-65
2024/01/27 11:45:29;;;;;;;9.93;3.33;;;15.70;91.60;;;;;;5032415;28;20053;-64
2024/01/27 11:47:55;;;;;;;10.32;3.65;;;;;;;;;;5032622;28;20410;-65
2024/01/27 11:50:21;;;;;;;10.80;3.50;;;15.90;91.70;;;;;;5016024;28;20037;-65
2024/01/27 11:52:47;;;;;;;10.35;3.42;;;15.80;91.70;;;;;;5015973;28;20056;-65
2024/01/27 11:55:14;;;;;;;10.55;3.72;;;15.80;91.70;;;;;;5048894;28;20489;-65
2024/01/27 11:57:41;;;;;;;12.82;3.90;;;;;;;;;;5033805;28;20059;-65
2024/01/27 12:00:09;;;;;;;9.43;3.55;;;16.10;91.90;;;;;;5033828;28;20045;-65
2024/01/27 12:02:35;;;;;;;13.02;3.85;;;;;;;;;;5032370;28;20093;-65
2024/01/27 12:05:01;;;;;;;9.40;3.25;;;;;;;;;;5033763;28;20041;-65
2024/01/27 12:07:27;;;;;;;10.27;3.47;;;16.10;92.00;;;;;;5015752;28;20140;-65
2024/01/27 12:09:53;;;;;;;12.13;3.78;;;;;;;;;;5032166;28;20124;-65
2024/01/27 12:12:18;;;;;;;10.23;3.78;;;16.00;92.00;;;;;;5033173;28;20045;-65
2024/01/27 12:14:48;;;;;;;11.48;3.55;;;16.00;92.00;;;;;;5032159;28;20107;-65
2024/01/27 12:17:14;;;;;;;8.15;3.65;;;16.20;92.00;;;;;;5033611;28;20050;-65
2024/01/27 12:19:45;;;;;;;11.57;3.92;;;16.10;92.00;;;;;;5048672;28;20124;-65
2024/01/27 12:22:23;;;;;;;12.70;4.00;;;16.00;90.80;;;;;;5031938;28;20580;-66
2024/01/27 12:24:49;;;;;;;9.82;3.38;;;16.10;92.00;;;;;;5031845;28;20228;-65
2024/01/27 12:27:16;;;;;;;11.63;3.90;;;16.20;92.10;;;;;;5033216;28;20124;-65
2024/01/27 12:29:42;;;;;;;9.70;3.55;;;16.10;91.50;;;;;;5015603;28;20380;-65
2024/01/27 12:32:07;;;;;;;10.07;4.18;;;16.20;90.90;;;;;;5031873;28;20046;-65
2024/01/27 12:34:33;;;;;;;8.65;3.80;;;16.30;92.10;;;;;;5031677;28;20041;-65
2024/01/27 12:36:59;;;;;;;8.75;3.40;;;16.00;92.00;;;;;;5015442;28;20496;-65
2024/01/27 12:39:26;;;;;;;12.00;3.53;;;16.10;90.80;;;;;;5014922;28;20411;-65
2024/01/27 12:41:52;;;;;;;14.40;4.00;;;;;;;;;;5033216;28;20061;-66
2024/01/27 12:44:17;;;;;;;10.18;3.50;;;16.20;92.00;;;;;;5031845;28;20049;-65
2024/01/27 12:46:43;;;;;;;15.40;4.18;;;16.10;92.00;;;;;;5033105;28;20049;-65
2024/01/27 12:49:09;;;;;;;8.32;3.60;;;16.30;92.10;;;;;;5032598;28;20042;-65
2024/01/27 12:51:34;;;;;;;11.50;3.78;;;16.10;92.00;;;;;;5031541;28;20045;-65
2024/01/27 12:54:00;;;;;;;11.23;3.88;;;16.00;92.00;;;;;;5032603;28;20041;-65
2024/01/27 12:56:26;;;;;;;10.10;3.42;;;;;;;;;;5032817;28;20091;-65
2024/01/27 12:58:52;;;;;;;10.43;3.33;;;;;;;;;;5031520;28;20092;-65
2024/01/27 13:01:18;;;;;;;10.13;3.13;;;16.10;92.10;;;;;;5015028;28;20119;-64
2024/01/27 13:03:43;;;;;;;8.98;3.58;;;16.10;92.20;;;;;;5031220;28;20442;-65
2024/01/27 13:06:10;;;;;;;11.15;3.67;;;15.80;92.10;;;;;;5031187;28;20514;-65
2024/01/27 13:08:36;;;;;;;10.52;3.67;;;15.80;92.20;;;;;;5014949;28;20055;-65
2024/01/27 13:11:02;;;;;;;9.60;3.70;;;16.00;92.20;;;;;;5014989;28;20049;-65